METAR AND TAF INFORMATION
METAR FOR EDDW
ADDS - METARS form results

(0523 UTC 21 July 2018)
Data provider http://aviationweather.gov/adds/metars/
 
METAR text: EDDW 210520Z 08006KT CAVOK 18/09 Q1011 NOSIG
Conditions at: EDDW (BREMEN , DE) observed 0520 UTC 21 July 2018
Temperature: 18.0°C (64°F)
Dewpoint: 9.0°C (48°F) [RH = 56%]
Pressure (altimeter): 29.85 inches Hg (1011.0 mb)
Winds: from the E (80 degrees) at 7 MPH (6 knots; 3.1 m/s)
Visibility: 6 or more miles (10+ km)
Ceiling: ceiling and visibility are OK
Clouds: unknown
Weather: no significant weather observed at this time

METAR text: EDDW 210450Z 09004KT CAVOK 17/08 Q1011 NOSIG
Conditions at: EDDW (BREMEN , DE) observed 0450 UTC 21 July 2018
Temperature: 17.0°C (63°F)
Dewpoint: 8.0°C (46°F) [RH = 55%]
Pressure (altimeter): 29.85 inches Hg (1011.0 mb)
Winds: from the E (90 degrees) at 5 MPH (4 knots; 2.1 m/s)
Visibility: 6 or more miles (10+ km)
Ceiling: ceiling and visibility are OK
Clouds: unknown
Weather: no significant weather observed at this time

Forecast for: EDDW (BREMEN , DE)
Text: TAF EDDW 202300Z 2100/2124 08007KT CAVOK
Forecast period: 0000 to 1600 UTC 21 July 2018
Forecast type: FROM: standard forecast or significant change
Winds: from the E (80 degrees) at 8 MPH (7 knots; 3.6 m/s)
Visibility: 6 or more miles (10+ km)
Clouds: not forecast
Weather: NSW  (no significant weather)
Text: BECMG 2116/2118 02003KT
Forecast period: 1600 UTC 21 July 2018 to 0000 UTC 22 July 2018
Forecast type: BECOMING: Conditions expected to become as follows by 1800 UTC 21 July 2018
Winds: from the NNE (20 degrees) at 3 MPH (3 knots; 1.6 m/s)
Visibility: 6 or more miles (10+ km)
Weather: NSW  (no significant weather)

 AIRPORT MAP

 RUNWAY INFORMATION
Runway 05 Runway length 2297 ft Runway width 75 ft
Runway elevation 0 ft Runway displaced threshold 0 ft Runway heading 52
Runway 23 Runway length 2297 ft Runway width 75 ft
Runway elevation 13 ft Runway displaced threshold 0 ft Runway heading 232
Runway 09 Runway length 6693 ft Runway width 148 ft
Runway elevation 13 ft Runway displaced threshold 0 ft Runway heading 88
Runway 27 Runway length 6693 ft Runway width 148 ft
Runway elevation 14 ft Runway displaced threshold 0 ft Runway heading 268

 AIRPORT FREQUENCIES
Type AFIS Name INFO Frequency 125.1 MHZ
Type APP Name RADAR Frequency 124.8 MHZ
Type ATIS Name ATIS Frequency 117.45 MHZ
Type GND Name GND Frequency 121.75 MHZ
Type TWR Name TWR Frequency 120.325 MHZ

 AIRPORT NEAR NAVIGATION AIDS
Type VOR-DME Name Bremen Frequency 117450 KHZ



© 2017-2018 LuxairVA.com | All Rights Reserved |